Stanford, Montana
Current Conditions -  °F | °C
As of 1:54 PM on Friday 28 Nov 2014 (Local Time) from KLWT Reporting Station
Clear Clear  
Wind Chill: 55°   Ceiling: Unl
Heat Index: 55°   Visibility: 10mi
Dew Point: 31°   Wind: 29mph
Humidity: 40%   Direction: 250°WSW
Pressure: 29.45"   Gusts: 39mph
Location:  47.15°N, 110.22°W
Report Text: KLWT 282054Z AUTO 25025G34KT 10SM CLR 13/M01 A2945 RMK AO2 PK WND 25037/2034 SLP955 T01281006 56019
Loading
Personal Weather Stations






























Interactive Weather Map New forecast layout! Learn more

10-Day Weather Forecast

Advertisements
Track Severe Weather on mobile